createdAt,value
2023-05-18T00:00:10.992Z,6.80
2023-05-18T00:02:15.435Z,6.70
2023-05-18T00:04:18.433Z,6.70
2023-05-18T00:06:22.163Z,6.60
2023-05-18T00:08:24.776Z,6.60
2023-05-18T00:10:27.386Z,6.50
2023-05-18T00:12:30.079Z,6.50
2023-05-18T00:14:32.877Z,6.40
2023-05-18T00:16:35.402Z,6.40
2023-05-18T00:18:38.541Z,6.30
2023-05-18T00:20:43.481Z,6.20
2023-05-18T00:22:48.304Z,6.10
2023-05-18T00:24:51.380Z,6.10
2023-05-18T00:26:54.474Z,6.10
2023-05-18T00:28:57.352Z,6.00
2023-05-18T00:31:01.773Z,6.00
2023-05-18T00:33:04.476Z,5.90
2023-05-18T00:35:07.506Z,5.90
2023-05-18T00:37:10.131Z,5.80
2023-05-18T00:39:13.659Z,5.70
2023-05-18T00:41:17.356Z,5.70
2023-05-18T00:43:21.316Z,5.70
2023-05-18T00:45:26.359Z,5.80
2023-05-18T00:47:32.322Z,5.80
2023-05-18T00:49:36.354Z,5.80
2023-05-18T00:51:41.282Z,5.80
2023-05-18T00:53:47.308Z,5.80
2023-05-18T00:55:53.738Z,5.70
2023-05-18T00:58:03.002Z,5.70
2023-05-18T01:00:10.941Z,5.60
2023-05-18T01:02:15.770Z,5.70
2023-05-18T01:04:22.014Z,5.70
2023-05-18T01:06:27.685Z,5.70
2023-05-18T01:08:34.598Z,5.60
2023-05-18T01:10:41.679Z,5.60
2023-05-18T01:12:47.857Z,5.60
2023-05-18T01:14:54.972Z,5.70
2023-05-18T01:17:04.110Z,5.60
2023-05-18T01:19:08.902Z,5.70
2023-05-18T01:21:15.950Z,5.70
2023-05-18T01:23:33.303Z,5.70
2023-05-18T01:25:40.396Z,5.60
2023-05-18T01:27:45.909Z,5.70
2023-05-18T01:29:49.759Z,5.60
2023-05-18T01:31:52.380Z,5.60
2023-05-18T01:33:55.007Z,5.70
2023-05-18T01:35:57.677Z,5.70
2023-05-18T01:38:00.892Z,5.60
2023-05-18T01:40:05.026Z,5.50
2023-05-18T01:42:09.861Z,5.60
2023-05-18T01:44:15.304Z,5.60
2023-05-18T01:46:20.389Z,5.60
2023-05-18T01:48:25.137Z,5.70
2023-05-18T01:52:44.511Z,5.70
2023-05-18T01:54:50.728Z,5.70
2023-05-18T01:56:54.222Z,5.60
2023-05-18T01:58:57.817Z,5.50
2023-05-18T02:01:00.544Z,5.50
2023-05-18T02:03:03.624Z,5.40
2023-05-18T02:05:08.965Z,5.40
2023-05-18T02:07:11.846Z,5.20
2023-05-18T02:09:15.743Z,5.10
2023-05-18T02:11:18.487Z,5.00
2023-05-18T02:13:21.115Z,4.90
2023-05-18T02:15:23.719Z,4.80
2023-05-18T02:17:26.471Z,4.90
2023-05-18T02:19:30.461Z,4.80
2023-05-18T02:21:35.005Z,4.80
2023-05-18T02:23:39.361Z,4.80
2023-05-18T02:25:44.076Z,4.80
2023-05-18T02:27:47.000Z,4.80
2023-05-18T02:29:51.440Z,4.80
2023-05-18T02:31:54.207Z,4.80
2023-05-18T02:33:57.405Z,4.80
2023-05-18T02:36:00.608Z,4.80
2023-05-18T02:38:03.632Z,4.80
2023-05-18T02:40:09.361Z,4.70
2023-05-18T02:42:12.577Z,4.70
2023-05-18T02:44:15.289Z,4.60
2023-05-18T02:46:18.258Z,4.60
2023-05-18T02:48:20.963Z,4.60
2023-05-18T02:50:23.571Z,4.60
2023-05-18T02:52:27.081Z,4.60
2023-05-18T02:54:29.901Z,4.50
2023-05-18T02:56:33.240Z,4.50
2023-05-18T02:58:37.710Z,4.50
2023-05-18T03:00:42.217Z,4.50
2023-05-18T03:02:47.061Z,4.50
2023-05-18T03:04:52.048Z,4.50
2023-05-18T03:06:56.597Z,4.50
2023-05-18T03:08:59.335Z,4.50
2023-05-18T03:11:03.955Z,4.60
2023-05-18T03:13:06.888Z,4.60
2023-05-18T03:15:11.159Z,4.60
2023-05-18T03:17:14.610Z,4.60
2023-05-18T03:19:17.328Z,4.50
2023-05-18T03:21:21.669Z,4.50
2023-05-18T03:23:26.493Z,4.50
2023-05-18T03:25:30.020Z,4.50
2023-05-18T03:27:33.266Z,4.40
2023-05-18T03:29:35.935Z,4.40
2023-05-18T03:31:39.782Z,4.30
2023-05-18T03:33:43.200Z,4.20
2023-05-18T03:35:47.776Z,4.10
2023-05-18T03:37:50.254Z,4.00
2023-05-18T03:39:53.210Z,3.90
2023-05-18T03:41:56.035Z,3.90
2023-05-18T03:43:58.652Z,3.90
2023-05-18T03:46:01.331Z,3.90
2023-05-18T03:48:04.304Z,3.80
2023-05-18T03:50:08.269Z,3.80
2023-05-18T03:52:11.537Z,3.80
2023-05-18T03:54:14.195Z,3.80
2023-05-18T03:56:16.804Z,3.80
2023-05-18T03:58:20.038Z,3.90
2023-05-18T04:00:22.845Z,3.90
2023-05-18T04:04:41.374Z,4.00
2023-05-18T04:06:45.810Z,4.10
2023-05-18T04:08:48.850Z,4.10
2023-05-18T04:10:51.939Z,4.10
2023-05-18T04:12:54.683Z,4.00
2023-05-18T04:14:57.806Z,4.00
2023-05-18T04:17:04.156Z,4.10
2023-05-18T04:19:08.331Z,4.00
2023-05-18T04:21:11.799Z,4.00
2023-05-18T04:23:14.319Z,4.10
2023-05-18T04:25:17.147Z,4.10
2023-05-18T04:27:19.821Z,4.20
2023-05-18T04:29:22.446Z,4.30
2023-05-18T04:31:26.263Z,4.40
2023-05-18T04:33:29.321Z,4.50
2023-05-18T04:35:32.322Z,4.60
2023-05-18T04:37:35.197Z,4.60
2023-05-18T04:39:41.148Z,4.80
2023-05-18T04:41:45.888Z,4.80
2023-05-18T04:43:49.838Z,4.90
2023-05-18T04:45:54.368Z,4.90
2023-05-18T04:47:57.992Z,5.10
2023-05-18T04:50:01.772Z,5.20
2023-05-18T04:52:06.607Z,5.20
2023-05-18T04:54:09.228Z,5.20
2023-05-18T04:56:13.292Z,5.30
2023-05-18T04:58:16.542Z,5.30
2023-05-18T05:00:19.829Z,5.30
2023-05-18T05:02:22.525Z,5.40
2023-05-18T05:04:25.210Z,5.50
2023-05-18T05:06:27.827Z,5.50
2023-05-18T05:08:30.420Z,5.60
2023-05-18T05:10:33.075Z,5.50
2023-05-18T05:12:36.515Z,5.50
2023-05-18T05:14:39.216Z,5.50
2023-05-18T05:16:41.825Z,5.50
2023-05-18T05:18:47.092Z,5.60
2023-05-18T05:20:50.306Z,5.60
2023-05-18T05:22:55.543Z,5.70
2023-05-18T05:25:00.099Z,5.70
2023-05-18T05:27:03.013Z,5.60
2023-05-18T05:29:05.933Z,5.70
2023-05-18T05:31:08.865Z,5.80
2023-05-18T05:33:12.387Z,5.80
2023-05-18T05:35:15.055Z,5.80
2023-05-18T05:37:18.535Z,5.80
2023-05-18T05:39:21.272Z,5.90
2023-05-18T05:41:24.485Z,6.00
2023-05-18T05:43:27.218Z,6.10
2023-05-18T05:45:30.247Z,6.10
2023-05-18T05:47:35.137Z,6.20
2023-05-18T05:51:52.384Z,6.30
2023-05-18T05:53:55.460Z,6.40
2023-05-18T05:55:58.050Z,6.50
2023-05-18T05:58:00.695Z,6.60
2023-05-18T06:00:05.111Z,6.60
2023-05-18T06:02:09.662Z,6.80
2023-05-18T06:04:14.337Z,6.90
2023-05-18T06:06:16.941Z,6.90
2023-05-18T06:08:20.206Z,7.00
2023-05-18T06:10:23.677Z,7.00
2023-05-18T06:12:26.336Z,7.10
2023-05-18T06:14:28.970Z,7.10
2023-05-18T06:16:32.978Z,7.10
2023-05-18T06:18:36.425Z,7.10
2023-05-18T06:20:40.916Z,7.20
2023-05-18T06:22:44.227Z,7.20
2023-05-18T06:24:48.784Z,7.20
2023-05-18T06:26:53.245Z,7.30
2023-05-18T06:28:57.753Z,7.50
2023-05-18T06:31:02.217Z,7.60
2023-05-18T06:33:07.573Z,7.60
2023-05-18T06:35:11.401Z,7.60
2023-05-18T06:37:14.019Z,7.70
2023-05-18T06:39:16.756Z,7.70
2023-05-18T06:41:20.207Z,7.80
2023-05-18T06:43:24.869Z,7.90
2023-05-18T06:45:29.687Z,7.90
2023-05-18T06:47:34.342Z,8.00
2023-05-18T06:49:37.040Z,8.10
2023-05-18T06:51:39.782Z,8.10
2023-05-18T06:53:42.540Z,8.20
2023-05-18T06:55:45.680Z,8.20
2023-05-18T06:57:48.339Z,8.40
2023-05-18T06:59:52.797Z,8.50
2023-05-18T07:01:55.606Z,8.70
2023-05-18T07:03:58.664Z,8.70
2023-05-18T07:06:01.366Z,9.00
2023-05-18T07:08:05.301Z,8.90
2023-05-18T07:10:08.927Z,8.90
2023-05-18T07:12:11.437Z,9.00
2023-05-18T07:14:13.991Z,9.10
2023-05-18T07:16:16.629Z,9.10
2023-05-18T07:18:19.269Z,9.10
2023-05-18T07:20:23.126Z,9.10
2023-05-18T07:22:26.345Z,9.20
2023-05-18T07:24:28.900Z,9.30
2023-05-18T07:26:32.293Z,9.30
2023-05-18T07:28:34.793Z,9.30
2023-05-18T07:30:37.608Z,9.40
2023-05-18T07:32:40.992Z,9.50
2023-05-18T07:34:46.047Z,9.50
2023-05-18T07:36:48.672Z,9.60
2023-05-18T07:38:54.425Z,9.60
2023-05-18T07:41:04.291Z,9.70
2023-05-18T07:43:05.304Z,9.70
2023-05-18T07:47:29.245Z,9.80
2023-05-18T07:49:32.559Z,10.00
2023-05-18T07:51:35.202Z,10.00
2023-05-18T07:53:37.948Z,10.10
2023-05-18T07:55:41.577Z,10.20
2023-05-18T07:57:44.120Z,10.40
2023-05-18T07:59:46.717Z,10.50
2023-05-18T08:01:49.396Z,10.50
2023-05-18T08:03:52.413Z,10.70
2023-05-18T08:05:55.553Z,11.00
2023-05-18T08:07:58.099Z,11.20
2023-05-18T08:10:00.675Z,11.20
2023-05-18T08:12:03.445Z,11.30
2023-05-18T08:14:06.031Z,11.20
2023-05-18T08:16:12.391Z,11.30
2023-05-18T08:18:13.222Z,11.60
2023-05-18T08:20:16.692Z,11.80
2023-05-18T08:22:19.237Z,11.70
2023-05-18T08:24:22.557Z,12.00
2023-05-18T08:26:26.486Z,12.30
2023-05-18T08:28:29.364Z,12.50
2023-05-18T08:30:31.890Z,12.70
2023-05-18T08:32:36.525Z,12.90
2023-05-18T08:34:39.051Z,13.00
2023-05-18T08:36:43.456Z,13.10
2023-05-18T08:38:46.138Z,13.20
2023-05-18T08:40:51.045Z,13.40
2023-05-18T08:42:56.793Z,13.20
2023-05-18T08:45:01.156Z,13.20
2023-05-18T08:47:04.327Z,13.30
2023-05-18T08:49:09.929Z,13.40
2023-05-18T08:51:14.754Z,13.30
2023-05-18T08:53:18.407Z,13.30
2023-05-18T08:55:21.967Z,13.20
2023-05-18T08:57:25.896Z,13.50
2023-05-18T08:59:30.245Z,13.70
2023-05-18T09:01:32.865Z,13.80
2023-05-18T09:03:36.628Z,14.00
2023-05-18T09:05:40.677Z,14.20
2023-05-18T09:07:43.448Z,14.40
2023-05-18T09:09:51.885Z,14.50
2023-05-18T09:11:56.451Z,14.60
2023-05-18T09:14:00.134Z,14.90
2023-05-18T09:16:16.569Z,15.00
2023-05-18T09:18:41.742Z,14.80
2023-05-18T09:20:47.679Z,14.60
2023-05-18T09:22:50.916Z,14.20
2023-05-18T09:27:08.827Z,14.50
2023-05-18T09:29:17.877Z,14.80
2023-05-18T09:31:24.010Z,14.70
2023-05-18T09:33:28.513Z,14.70
2023-05-18T09:35:31.881Z,15.00
2023-05-18T09:37:35.555Z,15.00
2023-05-18T09:39:38.101Z,15.00
2023-05-18T09:41:41.167Z,15.30
2023-05-18T09:43:44.033Z,15.30
2023-05-18T09:45:47.930Z,15.50
2023-05-18T09:47:50.501Z,15.80
2023-05-18T09:49:53.176Z,15.30
2023-05-18T09:51:56.630Z,15.30
2023-05-18T09:53:59.220Z,15.60
2023-05-18T09:56:04.077Z,15.70
2023-05-18T09:58:08.602Z,15.80
2023-05-18T10:00:12.694Z,15.70
2023-05-18T10:02:17.030Z,15.80
2023-05-18T10:04:20.982Z,15.20
2023-05-18T10:06:26.123Z,15.40
2023-05-18T10:08:28.683Z,15.70
2023-05-18T10:10:31.531Z,15.70
2023-05-18T10:12:36.185Z,14.90
2023-05-18T10:14:39.838Z,14.30
2023-05-18T10:16:42.763Z,14.60
2023-05-18T10:18:46.077Z,15.20
2023-05-18T10:20:48.693Z,15.30
2023-05-18T10:22:52.223Z,15.10
2023-05-18T10:24:56.359Z,15.00
2023-05-18T10:27:00.734Z,15.10
2023-05-18T10:29:04.347Z,15.10
2023-05-18T10:31:08.051Z,15.40
2023-05-18T10:33:20.572Z,15.80
2023-05-18T10:35:16.053Z,15.90
2023-05-18T10:37:19.202Z,15.80
2023-05-18T10:39:21.947Z,16.20
2023-05-18T10:41:24.867Z,16.10
2023-05-18T10:43:28.157Z,16.50
2023-05-18T10:45:33.652Z,16.60
2023-05-18T10:47:38.855Z,16.70
2023-05-18T10:49:42.594Z,16.80
2023-05-18T10:51:45.877Z,16.90
2023-05-18T10:53:48.929Z,16.50
2023-05-18T10:55:52.076Z,16.60
2023-05-18T10:57:56.395Z,16.70
2023-05-18T10:59:58.941Z,16.80
2023-05-18T11:02:01.597Z,17.00
2023-05-18T11:04:04.648Z,17.40
2023-05-18T11:06:09.711Z,17.00
2023-05-18T11:08:14.048Z,16.70
2023-05-18T11:10:16.626Z,16.70
2023-05-18T11:12:19.143Z,16.70
2023-05-18T11:14:28.302Z,15.80
2023-05-18T11:16:33.600Z,15.80
2023-05-18T11:18:38.330Z,16.10
2023-05-18T11:20:40.891Z,16.20
2023-05-18T11:22:47.580Z,16.50
2023-05-18T11:24:50.223Z,16.50
2023-05-18T11:26:53.525Z,16.50
2023-05-18T11:28:57.868Z,16.60
2023-05-18T11:31:00.410Z,17.00
2023-05-18T11:33:09.724Z,17.40
2023-05-18T11:35:14.260Z,17.60
2023-05-18T11:37:17.458Z,17.50
2023-05-18T11:39:24.127Z,17.50
2023-05-18T11:41:30.937Z,17.50
2023-05-18T11:43:33.458Z,17.70
2023-05-18T11:45:36.059Z,17.70
2023-05-18T11:47:39.982Z,17.60
2023-05-18T11:49:43.678Z,17.60
2023-05-18T11:51:58.466Z,17.70
2023-05-18T11:54:01.055Z,17.70
2023-05-18T11:56:03.890Z,17.80
2023-05-18T11:58:07.440Z,17.30
2023-05-18T12:00:11.541Z,16.60
2023-05-18T12:02:20.438Z,16.00
2023-05-18T12:04:23.972Z,15.90
2023-05-18T12:06:27.788Z,16.50
2023-05-18T12:08:30.322Z,16.60
2023-05-18T12:10:36.054Z,16.50
2023-05-18T12:12:39.633Z,16.70
2023-05-18T12:14:42.566Z,17.10
2023-05-18T12:16:45.758Z,17.30
2023-05-18T12:18:49.535Z,17.40
2023-05-18T12:20:53.038Z,17.20
2023-05-18T12:22:55.693Z,17.00
2023-05-18T12:24:58.245Z,17.20
2023-05-18T12:27:04.530Z,17.40
2023-05-18T12:29:07.660Z,17.50
2023-05-18T12:31:10.320Z,14.70
2023-05-18T12:33:12.985Z,17.60
2023-05-18T12:35:15.681Z,16.70
2023-05-18T12:37:18.899Z,16.90
2023-05-18T12:39:21.674Z,17.20
2023-05-18T12:41:25.878Z,17.20
2023-05-18T12:43:30.328Z,17.40
2023-05-18T12:45:34.255Z,17.50
2023-05-18T12:47:38.960Z,17.70
2023-05-18T12:49:42.800Z,17.70
2023-05-18T12:51:45.422Z,17.20
2023-05-18T12:53:49.399Z,17.30
2023-05-18T12:55:57.998Z,17.10
2023-05-18T12:58:01.624Z,17.20
2023-05-18T13:00:08.448Z,17.20
2023-05-18T13:02:14.563Z,17.10
2023-05-18T13:04:17.460Z,16.60
2023-05-18T13:06:20.052Z,16.90
2023-05-18T13:08:23.330Z,16.50
2023-05-18T13:10:27.709Z,16.30
2023-05-18T13:12:37.906Z,16.60
2023-05-18T13:14:41.098Z,16.90
2023-05-18T13:16:45.557Z,17.20
2023-05-18T13:18:50.134Z,17.30
2023-05-18T13:20:53.523Z,17.60
2023-05-18T13:22:57.878Z,16.70
2023-05-18T13:25:00.388Z,16.40
2023-05-18T13:27:02.935Z,16.60
2023-05-18T13:29:06.995Z,17.00
2023-05-18T13:31:11.587Z,17.10
2023-05-18T13:33:14.057Z,17.00
2023-05-18T13:35:18.000Z,16.90
2023-05-18T13:37:20.647Z,17.40
2023-05-18T13:39:23.197Z,17.30
2023-05-18T13:41:25.739Z,16.50
2023-05-18T13:43:28.282Z,16.40
2023-05-18T13:45:31.027Z,16.40
2023-05-18T13:47:33.769Z,16.60
2023-05-18T13:49:36.427Z,17.10
2023-05-18T13:51:38.955Z,17.60
2023-05-18T13:53:41.500Z,17.90
2023-05-18T13:55:44.065Z,18.00
2023-05-18T13:57:46.600Z,17.90
2023-05-18T13:59:49.207Z,18.20
2023-05-18T14:01:51.816Z,18.30
2023-05-18T14:03:54.445Z,18.40
2023-05-18T14:05:57.055Z,18.10
2023-05-18T14:07:59.603Z,17.60
2023-05-18T14:10:02.204Z,18.00
2023-05-18T14:12:05.586Z,17.60
2023-05-18T14:14:08.139Z,17.60
2023-05-18T14:16:10.798Z,17.60
2023-05-18T14:18:13.381Z,16.90
2023-05-18T14:20:16.163Z,16.80
2023-05-18T14:22:18.914Z,17.00
2023-05-18T14:24:21.479Z,17.50
2023-05-18T14:26:24.003Z,17.90
2023-05-18T14:28:26.532Z,18.20
2023-05-18T14:30:29.257Z,18.30
2023-05-18T14:32:32.201Z,18.40
2023-05-18T14:34:34.784Z,18.30
2023-05-18T14:36:37.385Z,18.00
2023-05-18T14:38:41.044Z,18.20
2023-05-18T14:40:43.596Z,18.10
2023-05-18T14:42:46.276Z,18.10
2023-05-18T14:44:48.793Z,18.40
2023-05-18T14:46:52.110Z,18.40
2023-05-18T14:48:54.663Z,17.90
2023-05-18T14:50:57.210Z,17.90
2023-05-18T14:52:59.764Z,17.70
2023-05-18T14:55:02.317Z,17.20
2023-05-18T14:57:05.025Z,16.90
2023-05-18T14:59:07.549Z,17.10
2023-05-18T15:01:10.064Z,17.00
2023-05-18T15:03:12.961Z,17.40
2023-05-18T15:05:15.655Z,17.70
2023-05-18T15:07:18.200Z,18.00
2023-05-18T15:09:20.772Z,17.70
2023-05-18T15:11:23.260Z,17.90
2023-05-18T15:13:25.939Z,17.80
2023-05-18T15:15:28.455Z,17.70
2023-05-18T15:17:31.095Z,17.70
2023-05-18T15:19:33.644Z,18.00
2023-05-18T15:21:36.194Z,18.30
2023-05-18T15:23:38.715Z,18.40
2023-05-18T15:25:41.258Z,18.20
2023-05-18T15:27:43.812Z,18.40
2023-05-18T15:29:47.787Z,18.40
2023-05-18T15:31:50.618Z,18.50
2023-05-18T15:33:53.097Z,18.70
2023-05-18T15:35:55.687Z,17.70
2023-05-18T15:37:58.194Z,17.20
2023-05-18T15:40:00.775Z,17.20
2023-05-18T15:42:04.461Z,17.20
2023-05-18T15:44:06.990Z,17.60
2023-05-18T15:46:09.551Z,17.70
2023-05-18T15:48:12.218Z,17.90
2023-05-18T15:50:14.944Z,18.30
2023-05-18T15:52:17.455Z,18.30
2023-05-18T15:54:19.971Z,18.20
2023-05-18T15:56:22.733Z,18.30
2023-05-18T15:58:25.845Z,18.30
2023-05-18T16:00:29.136Z,18.00
2023-05-18T16:02:31.834Z,18.40
2023-05-18T16:04:34.357Z,18.50
2023-05-18T16:06:38.002Z,18.60
2023-05-18T16:08:40.529Z,18.60
2023-05-18T16:10:43.098Z,18.60
2023-05-18T16:12:45.780Z,18.30
2023-05-18T16:14:48.548Z,18.40
2023-05-18T16:16:51.154Z,18.30
2023-05-18T16:18:53.802Z,18.50
2023-05-18T16:20:56.396Z,18.40
2023-05-18T16:22:58.958Z,18.50
2023-05-18T16:25:01.532Z,18.30
2023-05-18T16:27:04.261Z,18.00
2023-05-18T16:29:06.813Z,18.00
2023-05-18T16:31:11.254Z,18.30
2023-05-18T16:33:13.864Z,18.20
2023-05-18T16:35:16.628Z,18.20
2023-05-18T16:37:19.203Z,18.30
2023-05-18T16:39:21.832Z,18.20
2023-05-18T16:41:24.380Z,18.40
2023-05-18T16:45:42.481Z,18.20
2023-05-18T16:47:45.046Z,18.00
2023-05-18T16:49:48.557Z,18.10
2023-05-18T16:51:51.509Z,18.20
2023-05-18T16:53:54.938Z,18.10
2023-05-18T16:55:57.492Z,18.10
2023-05-18T16:58:00.002Z,18.20
2023-05-18T17:00:05.411Z,18.20
2023-05-18T17:02:10.901Z,18.10
2023-05-18T17:04:13.913Z,18.20
2023-05-18T17:06:19.487Z,18.10
2023-05-18T17:08:23.039Z,17.50
2023-05-18T17:10:25.714Z,17.80
2023-05-18T17:12:28.588Z,17.90
2023-05-18T17:14:31.125Z,18.10
2023-05-18T17:16:35.549Z,18.20
2023-05-18T17:18:38.351Z,18.30
2023-05-18T17:20:40.945Z,18.40
2023-05-18T17:22:43.532Z,18.40
2023-05-18T17:24:47.521Z,18.30
2023-05-18T17:27:16.495Z,18.40
2023-05-18T17:29:47.895Z,18.30
2023-05-18T17:34:10.129Z,18.10
2023-05-18T17:36:12.754Z,18.00
2023-05-18T17:38:16.722Z,18.00
2023-05-18T17:40:19.580Z,17.90
2023-05-18T17:42:22.098Z,18.00
2023-05-18T17:44:24.655Z,17.80
2023-05-18T17:46:27.330Z,17.70
2023-05-18T17:48:29.893Z,17.60
2023-05-18T17:50:32.645Z,17.50
2023-05-18T17:52:35.508Z,17.50
2023-05-18T17:54:38.060Z,17.60
2023-05-18T17:56:40.774Z,17.60
2023-05-18T17:58:43.586Z,17.40
2023-05-18T18:00:46.115Z,17.40
2023-05-18T18:02:48.705Z,17.30
2023-05-18T18:04:51.220Z,17.20
2023-05-18T18:06:54.026Z,17.20
2023-05-18T18:08:57.317Z,17.00
2023-05-18T18:10:59.984Z,17.00
2023-05-18T18:13:02.586Z,16.90
2023-05-18T18:15:05.913Z,16.80
2023-05-18T18:19:23.119Z,16.60
2023-05-18T18:21:29.183Z,16.50
2023-05-18T18:23:32.547Z,16.50
2023-05-18T18:25:35.192Z,16.40
2023-05-18T18:27:37.722Z,16.30
2023-05-18T18:29:40.238Z,16.20
2023-05-18T18:31:42.856Z,16.10
2023-05-18T18:33:47.257Z,16.00
2023-05-18T18:35:49.798Z,15.90
2023-05-18T18:37:52.454Z,15.80
2023-05-18T18:39:55.120Z,15.60
2023-05-18T18:41:57.848Z,15.40
2023-05-18T18:44:00.468Z,15.40
2023-05-18T18:46:03.078Z,15.10
2023-05-18T18:48:06.353Z,14.90
2023-05-18T18:50:09.510Z,14.80
2023-05-18T18:52:13.735Z,14.60
2023-05-18T18:54:16.729Z,14.50
2023-05-18T18:56:19.275Z,14.40
2023-05-18T18:58:23.658Z,14.30
2023-05-18T19:00:26.182Z,14.20
2023-05-18T19:02:28.739Z,14.20
2023-05-18T19:04:31.390Z,14.00
2023-05-18T19:06:33.898Z,14.00
2023-05-18T19:08:36.459Z,13.90
2023-05-18T19:10:39.023Z,13.80
2023-05-18T19:12:43.085Z,13.70
2023-05-18T19:17:01.304Z,13.50
2023-05-18T19:19:07.103Z,13.40
2023-05-18T19:21:10.911Z,13.30
2023-05-18T19:23:13.496Z,13.30
2023-05-18T19:25:16.468Z,13.20
2023-05-18T19:27:19.388Z,13.10
2023-05-18T19:29:24.663Z,13.00
2023-05-18T19:31:30.301Z,13.00
2023-05-18T19:33:35.876Z,12.90
2023-05-18T19:35:41.626Z,12.90
2023-05-18T19:37:44.611Z,12.90
2023-05-18T19:39:47.139Z,12.80
2023-05-18T19:41:49.689Z,12.70
2023-05-18T19:43:52.285Z,12.70
2023-05-18T19:45:54.919Z,12.70
2023-05-18T19:47:57.615Z,12.60
2023-05-18T19:50:00.415Z,12.60
2023-05-18T19:52:05.515Z,12.60
2023-05-18T19:54:08.039Z,12.50
2023-05-18T19:56:10.584Z,12.40
2023-05-18T19:58:25.391Z,12.40
2023-05-18T20:00:28.550Z,12.30
2023-05-18T20:02:31.473Z,12.30
2023-05-18T20:04:34.065Z,12.20
2023-05-18T20:06:38.129Z,12.20
2023-05-18T20:08:42.163Z,12.20
2023-05-18T20:10:44.719Z,12.20
2023-05-18T20:12:47.238Z,12.10
2023-05-18T20:14:50.660Z,12.10
2023-05-18T20:16:55.066Z,12.00
2023-05-18T20:18:59.000Z,12.00
2023-05-18T20:21:01.539Z,12.00
2023-05-18T20:23:05.972Z,11.80
2023-05-18T20:25:11.779Z,11.80
2023-05-18T20:27:15.624Z,11.70
2023-05-18T20:29:19.229Z,11.60
2023-05-18T20:31:22.991Z,11.60
2023-05-18T20:33:26.951Z,11.40
2023-05-18T20:35:30.453Z,11.40
2023-05-18T20:37:34.403Z,11.30
2023-05-18T20:39:39.712Z,11.30
2023-05-18T20:41:43.407Z,11.20
2023-05-18T20:46:04.418Z,11.10
2023-05-18T20:48:08.771Z,11.10
2023-05-18T20:50:13.350Z,11.10
2023-05-18T20:52:17.060Z,11.10
2023-05-18T20:54:20.730Z,11.10
2023-05-18T20:56:26.192Z,11.10
2023-05-18T20:58:32.131Z,11.20
2023-05-18T21:00:37.186Z,11.20
2023-05-18T21:02:40.797Z,11.20
2023-05-18T21:04:43.389Z,11.20
2023-05-18T21:06:46.087Z,11.30
2023-05-18T21:11:04.000Z,11.30
2023-05-18T21:13:06.535Z,11.40
2023-05-18T21:15:09.657Z,11.40
2023-05-18T21:17:12.440Z,11.40
2023-05-18T21:19:15.860Z,11.40
2023-05-18T21:21:18.628Z,11.40
2023-05-18T21:23:21.279Z,11.40
2023-05-18T21:25:24.550Z,11.40
2023-05-18T21:27:27.424Z,11.30
2023-05-18T21:29:30.074Z,11.40
2023-05-18T21:31:32.849Z,11.40
2023-05-18T21:33:35.678Z,11.30
2023-05-18T21:35:38.362Z,11.40
2023-05-18T21:37:41.552Z,11.30
2023-05-18T21:39:44.136Z,11.40
2023-05-18T21:41:46.804Z,11.30
2023-05-18T21:43:49.369Z,11.30
2023-05-18T21:45:52.102Z,11.30
2023-05-18T21:47:54.751Z,11.30
2023-05-18T21:49:57.516Z,11.30
2023-05-18T21:52:00.496Z,11.30
2023-05-18T21:54:03.558Z,11.30
2023-05-18T21:56:06.691Z,11.30
2023-05-18T21:58:09.268Z,11.20
2023-05-18T22:00:13.407Z,11.20
2023-05-18T22:02:16.088Z,11.10
2023-05-18T22:04:18.785Z,11.00
2023-05-18T22:06:23.299Z,10.80
2023-05-18T22:08:27.102Z,10.70
2023-05-18T22:10:32.573Z,10.50
2023-05-18T22:12:37.663Z,10.40
2023-05-18T22:14:41.276Z,10.20
2023-05-18T22:16:44.955Z,10.10
2023-05-18T22:18:48.658Z,10.10
2023-05-18T22:20:52.359Z,10.00
2023-05-18T22:22:56.160Z,9.90
2023-05-18T22:24:59.925Z,9.90
2023-05-18T22:27:03.853Z,9.80
2023-05-18T22:29:08.039Z,9.70
2023-05-18T22:31:11.319Z,9.70
2023-05-18T22:33:15.085Z,9.60
2023-05-18T22:35:19.585Z,9.50
2023-05-18T22:37:23.436Z,9.40
2023-05-18T22:39:27.417Z,9.40
2023-05-18T22:41:31.292Z,9.30
2023-05-18T22:43:35.135Z,9.10
2023-05-18T22:45:39.088Z,9.10
2023-05-18T22:47:45.380Z,9.00
2023-05-18T22:49:49.356Z,8.90
2023-05-18T22:51:53.151Z,8.80
2023-05-18T22:53:57.212Z,8.70
2023-05-18T22:56:01.115Z,8.70
2023-05-18T22:58:05.170Z,8.80
2023-05-18T23:00:11.201Z,8.70
2023-05-18T23:02:14.970Z,8.70
2023-05-18T23:06:32.881Z,8.70
2023-05-18T23:08:36.902Z,8.70
2023-05-18T23:10:39.459Z,8.80
2023-05-18T23:12:42.024Z,8.90
2023-05-18T23:14:44.772Z,8.90
2023-05-18T23:16:48.721Z,8.90
2023-05-18T23:18:53.093Z,8.90
2023-05-18T23:20:57.471Z,8.80
2023-05-18T23:23:00.024Z,8.70
2023-05-18T23:25:29.250Z,8.60
2023-05-18T23:27:35.706Z,8.70
2023-05-18T23:29:41.316Z,8.70
2023-05-18T23:32:14.127Z,8.70
2023-05-18T23:34:14.962Z,8.60
2023-05-18T23:36:19.009Z,8.50
2023-05-18T23:38:23.341Z,8.40
2023-05-18T23:40:26.402Z,8.40
2023-05-18T23:42:29.615Z,8.40
2023-05-18T23:44:32.831Z,8.30
2023-05-18T23:46:36.275Z,8.30
2023-05-18T23:50:56.983Z,8.40
2023-05-18T23:53:01.507Z,8.40
2023-05-18T23:55:04.970Z,8.40
2023-05-18T23:57:08.546Z,8.30
2023-05-18T23:59:11.696Z,8.30
